Indian Springs, Nevada Weather observations

Data are for observation ending at time listed.
 Day   Time    Ave.   Ave.  Ave.  Vector   Max.   Stn.    Total    Solar   Ave.  
  of    of     Air    Rel.  Wind   Wind    Wind   Baro.  Precip.   Rad.    Soil  
Year   Day     Temp.  Hum.  Speed  Dir.    Gust   Pres.                    Temp. 
2014   (PST)    F      %     mph   deg.    mph     mb.     in.     W/m2     F   
------------------------------------------------------------------------------
 331   22:20   40.5    32    1.2   232      2.2   908.1    0.00       0    49.9
 331   22:30   40.3    32    0.5   242      1.6   908.1    0.00       0    49.7
 331   22:40   39.4    34    0.2    31      1.2   908.0    0.00       0    49.7
 331   22:50   38.4    35    0.0     0      0.0   907.9    0.00       0    49.5
 331   23:00   38.0    36    0.4   192      1.5   907.8    0.00       0    49.4
 331   23:10   38.3    37    0.6   195      1.2   907.8    0.00       0    49.3
 331   23:20   38.7    36    0.1   207      0.6   907.6    0.00       0    49.2
 331   23:30   38.1    38    0.0   207      0.4   907.9    0.00       0    49.1
 331   23:40   37.6    39    0.2   207      0.9   907.4    0.00       0    49.0
 331   23:50   38.1    37    0.2   208      0.8   907.3    0.00       0    48.9
 332    0:00   37.9    38    0.0     0      0.0   907.1    0.00       0    48.8
 332    0:10   37.6    38    0.1   213      0.7   907.1    0.00       0    48.8
 332    0:20   37.6    39    0.3   244      1.3   907.0    0.00       0    48.7
 332    0:30   38.2    36    0.6   241      2.0   906.9    0.00       0    48.5
 332    0:40   38.0    35    0.7   230      2.0   906.7    0.00       0    48.5
 332    0:50   37.3    36    0.6   239      1.6   906.7    0.00       0    48.4
 332    1:00   36.6    37    0.8   231      1.8   906.6    0.00       0    48.3
 332    1:10   36.3    37    0.6   227      1.5   906.6    0.00       0    48.2
 332    1:20   36.3    38    0.2   216      1.2   906.5    0.00       0    48.1
 332    1:30   35.8    38    1.1   233      1.8   906.5    0.00       0    48.0
 332    1:40   35.7    38    0.7   233      2.0   906.5    0.00       0    47.9
 332    1:50   35.5    38    0.3   246      1.6   906.5    0.00       0    47.8
 332    2:00   35.2    39    0.6   217      2.3   906.5    0.00       0    47.7
 332    2:10   35.3    41    0.4   248      1.8   906.4    0.00       0    47.6
 332    2:20   35.3    40    0.5   216      1.8   906.4    0.00       0    47.5
 332    2:30   34.8    44    0.1   164      0.7   906.2    0.00       0    47.4
 332    2:40   35.1    44    0.1   173      0.9   906.1    0.00       0    47.3
 332    2:50   34.7    45    0.1   138      0.6   905.9    0.00       0    47.2
 332    3:00   34.2    46    0.1   103      0.7   905.7    0.00       0    47.1
 332    3:10   34.4    44    0.0   193      0.5   905.7    0.00       0    47.0
 332    3:20   34.5    43    0.2   314      1.2   905.6    0.00       0    47.0
 332    3:30   34.5    43    0.4   289      2.2   905.5    0.00       0    46.9
 332    3:40   34.2    41    0.9   215      1.9   905.4    0.00       0    46.8
 332    3:50   33.7    43    0.4   196      1.4   905.3    0.00       0    46.7
 332    4:00   33.9    44    0.2   196      1.2   905.3    0.00       0    46.6
 332    4:10   33.7    45    0.1   308      1.2   905.2    0.00       0    46.5
 332    4:20   33.4    45    0.4   274      2.3   905.2    0.00       0    46.5
 332    4:30   33.1    43    0.8   232      1.9   905.2    0.00       0    46.4
 332    4:40   32.9    43    0.6   227      1.9   905.1    0.00       0    46.3
 332    4:50   32.8    44    0.1    31      1.5   905.1    0.00       0    46.2
 332    5:00   32.5    44    0.9   234      2.7   905.1    0.00       0    46.1
 332    5:10   32.5    44    0.5   215      1.8   905.1    0.00       0    46.0
 332    5:20   32.3    44    0.2   240      1.3   905.1    0.00       0    45.9
 332    5:30   31.8    46    0.7   232      1.8   905.2    0.00       0    45.8
 332    5:40   32.3    44    1.4   230      5.0   905.2    0.00       0    45.8
 332    5:50   32.1    44    1.3   231      3.0   905.1    0.00       0    45.7
 332    6:00   32.5    43    1.2   239      3.9   905.1    0.00       0    45.6
 332    6:10   32.6    44    1.0   203      2.9   905.1    0.00       0    45.5
 332    6:20   32.7    44    0.4   187      2.1   905.0    0.00       1    45.4
 332    6:30   31.8    46    0.4   197      1.8   905.0    0.00       3    45.4
 332    6:40   31.6    48    0.4   267      1.7   905.0    0.00       3    45.3
 332    6:50   31.9    47    1.0   276      3.1   904.9    0.00       9    45.2
 332    7:00   31.8    46    0.8   302      4.7   905.0    0.00      11    45.1
 332    7:10   31.3    45    0.9   233      2.6   904.9    0.00      14    45.0
 332    7:20   32.7    44    0.9   156      2.0   904.9    0.00      20    45.0
 332    7:30   33.0    44    0.9    80      2.7   905.0    0.00      28    44.9
 332    7:40   33.7    45    0.9   134      2.3   905.0    0.00      29    44.8
 332    7:50   35.1    43    0.7   106      2.7   905.0    0.00      42    44.8
 332    8:00   36.9    40    0.5   136      2.3   905.1    0.00     128    44.7
 332    8:10   39.2    38    0.6   136      1.9   905.3    0.00     215    44.7
 332    8:20   41.8    35    1.0    71      2.1   905.4    0.00     284    44.6
 332    8:30   43.7    33    0.7    71      1.9   905.7    0.00     339    44.6
 332    8:40   46.6    29    0.8    24      2.0   906.1    0.00     367    44.6
 332    8:50   45.5    29    1.3   356      3.2   906.6    0.00     342    44.6
 332    9:00   44.3    30    1.4   341      3.7   906.9    0.00     270    44.7
 332    9:10   45.5    30    0.9   339      2.3   907.1    0.00     293    44.8
 332    9:20   46.6    29    1.4   272      3.4   907.3    0.00     132    45.0
 332    9:30   47.9    27    0.5   338      1.8   907.5    0.00     111    45.2
 332    9:40   48.8    27    1.6     5      3.4   907.7    0.00     114    45.4
 332    9:50   48.1    28    1.8   323      3.6   907.9    0.00     243    45.7
 332   10:00   48.4    28    1.5     2      3.3   907.5    0.00     103    46.0
 332   10:10   50.1    26    1.5   344      3.9   907.3    0.00     121    46.4
 332   10:20   50.3    26    1.6   353      3.4   907.1    0.00      49    46.7
 332   10:30   50.8    25    1.5     6      3.1   906.8    0.00      76    47.0
 332   10:40   51.4    24    1.5   309      3.4   906.6    0.00      76    47.3
 332   10:50   52.0    24    1.5   328      3.4   906.3    0.00     120    47.6
 332   11:00   53.3    23    1.3    21      3.1   906.2    0.00     152    47.8
 332   11:10   54.5    22    1.1   334      2.5   905.9    0.00     394    48.0
 332   11:20   55.7    22    1.7   298      3.4   905.7    0.00     457    48.2
 332   11:30   56.8    21    1.2     1      3.4   905.6    0.00     641    48.4
 332   11:40   57.8    20    1.9    17      4.0   905.6    0.00     643    48.6
 332   11:50   58.1    20    2.4    30      5.6   905.7    0.00     644    48.7
 332   12:00   59.2    19    1.7    18      3.3   905.9    0.00     637    49.0
 332   12:10   60.2    18    1.9    33      4.1   905.9    0.00     631    49.2
 332   12:20   60.1    18    2.2    60      5.3   906.0    0.00     613    49.4
 332   12:30   60.9    18    2.0    57      3.9   905.8    0.00     608    49.7
 332   12:40   60.9    18    2.2    46      4.4   905.7    0.00     595    50.1
 332   12:50   61.6    18    1.7     5      3.8   905.6    0.00     581    50.5
 332   13:00   62.0    18    2.0     8      4.4   905.4    0.00     577    51.0
 332   13:10   62.2    17    2.2    24      5.1   905.3    0.00     524    51.4
 332   13:20   62.2    18    2.1    20      6.1   905.2    0.00     172    51.9
 332   13:30   63.4    17    1.5    77      4.5   904.9    0.00     525    52.3
 332   13:40   64.0    17    2.8    80      7.5   904.8    0.00     462    52.7
 332   13:50   64.0    17    2.5    78      4.9   904.9    0.00     483    53.1
 332   14:00   64.5    17    2.4    78      5.7   904.6    0.00     460    53.4
 332   14:10   64.4    17    2.6    69      5.5   904.5    0.00     434    53.8
 332   14:20   64.5    17    4.1    68     10.5   904.5    0.00     408    54.1
 332   14:30   64.4    17    3.3    73      6.6   904.4    0.00     380    54.4
 332   14:40   64.3    17    4.1    81      7.7   904.2    0.00     353    54.7
 332   14:50   64.0    17    5.0    82      9.3   904.1    0.00     324    55.0
 332   15:00   63.7    17    4.9    81     10.0   903.8    0.00     293    55.3
 332   15:10   63.7    17    4.6    82      8.8   903.7    0.00     262    55.5
 332   15:20   63.2    17    4.5    77     10.0   903.6    0.00     230    55.7
 332   15:30   62.9    17    4.3    74      7.7   903.7    0.00     197    55.9
 332   15:40   62.4    18    3.6    66      7.9   903.6    0.00     165    56.0
 332   15:50   61.7    18    3.7    87      7.6   903.4    0.00     117    56.1
 332   16:00   60.9    19    3.5    85      7.6   903.1    0.00      56    56.2
 332   16:10   60.3    19    2.4    74      5.3   903.0    0.00      20    56.2
 332   16:20   59.5    20    2.0    93      3.8   902.8    0.00      13    56.2
 332   16:30   58.1    21    1.6   103      4.2   902.4    0.00       6    56.2
 332   16:40   56.9    22    0.4   181      1.9   902.3    0.00       5    56.1
 332   16:50   55.8    23    0.5    40      2.3   902.1    0.00       0    56.0
 332   17:00   54.8    24    0.5   203      1.8   902.0    0.00       0    55.9
 332   17:10   53.9    24    0.1   266      1.0   901.7    0.00       0    55.7
 332   17:20   53.3    25    0.3    34      1.2   901.7    0.00       0    55.6
 332   17:30   52.7    26    0.7    51      2.6   901.5    0.00       0    55.4
 332   17:40   51.7    26    0.4    17      2.0   901.3    0.00       0    55.2
 332   17:50   51.0    27    0.6    61      2.0   901.4    0.00       0    55.0
 332   18:00   50.3    28    0.7   120      2.7   901.2    0.00       0    54.9
 332   18:10   49.5    28    1.9   242      5.0   901.1    0.00       0    54.7
 332   18:20   49.0    28    0.8    14      2.6   900.9    0.00       0    54.5
 332   18:30   48.7    27    1.7   242      4.4   900.9    0.00       0    54.3
 332   18:40   47.9    28    0.6   226      2.1   900.8    0.00       0    54.2
 332   18:50   47.7    28    2.7   237      5.2   900.9    0.00       0    54.0
 332   19:00   47.7    28    1.6   231      4.7   900.7    0.00       0    53.8
 332   19:10   47.4    30    0.7   202      2.2   900.7    0.00       0    53.7
 332   19:20   47.5    30    0.7   214      2.4   900.6    0.00       0    53.5
 332   19:30   47.3    30    0.4   179      1.5   900.4    0.00       0    53.3
 332   19:40   45.6    31    1.1   296      2.9   900.4    0.00       0    53.1
 332   19:50   45.4    31    1.1   317      2.9   900.4    0.00       0    53.0
 332   20:00   44.7    31    1.6   226      4.9   900.3    0.00       0    52.8
 332   20:10   44.3    32    0.8   226      4.9   900.5    0.00       0    52.6
 332   20:20   44.5    31    0.9   230      4.7   900.3    0.00       0    52.5
 332   20:30   43.9    32    1.5   211      5.8   900.3    0.00       0    52.3
 332   20:40   44.2    32    1.4   231      3.6   900.4    0.00       0    52.2
 332   20:50   43.9    32    0.9   231      3.0   900.3    0.00       0    52.0
 332   21:00   42.9    34    0.4    11      2.0   900.3    0.00       0    51.9
 332   21:10   42.7    33    1.0   264      3.0   900.3    0.00       0    51.7
 332   21:20   42.3    33    0.4   232      2.4   900.2    0.00       0    51.6
 332   21:30   41.1    36    0.4   130      2.3   900.1    0.00       0    51.5
 332   21:40   40.9    37    0.6   330      1.8   900.0    0.00       0    51.3
 332   21:50   40.9    35    1.3   240      4.4   899.9    0.00       0    51.2
 332   22:00   41.6    34    1.9   271      4.0   899.7    0.00       0    51.0
 332   22:10   42.0    34    1.1   251      3.7   899.7    0.00       0    50.9

Return to Indian Springs, Nevada graphs page.


Western Regional Climate Center,wrcc@dri.edu